Terminal Aerodrome Forecast
Issued by NWS

Home | Current Version | Previous Version | Text Only | Print | Product List | Glossary On
Versions: 1 2 3 4 5 6 7 8 9 10 11 12 13 14 15 16 17 18 19 20
824
FTUS46 KSEW 221750
TAFBFI
TAF
KBFI 221750Z 2218/2318 30004KT P6SM SCT100
     FM230200 VRB03KT P6SM SCT100 SCT200
     FM230600 VRB03KT P6SM BKN100 BKN200
     FM231400 18003KT P6SM BKN012 OVC080=

USA.gov is the U.S. government's official web portal to all federal, state and local government web resources and services.